Time;durP1;ratioP1;P1;durP2;ratioP2;P2;SDS_P1;SDS_P2;PMS_P1;PMS_P2;Temp;Humidity;BMP_temperature;BMP_pressure;BME280_temperature;BME280_humidity;BME280_pressure;Samples;Min_cycle;Max_cycle;Signal;HPM_P1;HPM_P2
2022/08/14 00:00:12;;;;;;;10.23;9.23;;;;;;;;;;4994849;28;20084;-61
2022/08/14 00:02:38;;;;;;;9.88;8.88;;;;;;;;;;4996023;28;20036;-61
2022/08/14 00:05:04;;;;;;;10.45;9.50;;;;;;;;;;5002141;28;20457;-61
2022/08/14 00:07:29;;;;;;;11.02;8.95;;;;;;;;;;5002475;28;20038;-61
2022/08/14 00:09:55;;;;;;;10.25;9.25;;;;;;;;;;4994728;28;20096;-61
2022/08/14 00:12:20;;;;;;;10.15;9.25;;;;;;;;;;4996417;28;20041;-61
2022/08/14 00:14:46;;;;;;;11.52;10.38;;;;;;;;;;4998040;28;20547;-61
2022/08/14 00:17:11;;;;;;;11.40;9.55;;;;;;;;;;5004871;28;20026;-61
2022/08/14 00:19:36;;;;;;;9.38;8.57;;;;;;;;;;5003116;28;20531;-61
2022/08/14 00:22:02;;;;;;;10.98;9.98;;;;;;;;;;5001624;28;20030;-61
2022/08/14 00:24:27;;;;;;;10.35;9.27;;;;;;;;;;4995859;28;20469;-60
2022/08/14 00:26:52;;;;;;;10.27;9.27;;;;;;;;;;4999383;28;20044;-62
2022/08/14 00:29:18;;;;;;;10.63;9.27;;;;;;;;;;5002428;28;20396;-62
2022/08/14 00:31:43;;;;;;;11.13;10.02;;;;;;;;;;5001330;28;20050;-61
2022/08/14 00:34:08;;;;;;;10.73;9.63;;;;;;;;;;5003315;28;20038;-63
2022/08/14 00:36:34;;;;;;;11.25;10.15;;;;;;;;;;5001008;28;20029;-62
2022/08/14 00:38:59;;;;;;;11.50;9.32;;;;;;;;;;4988036;28;20041;-62
2022/08/14 00:41:29;;;;;;;11.13;10.15;;;;;;;;;;5001304;28;20374;-62
2022/08/14 00:43:54;;;;;;;10.35;9.35;;;;;;;;;;4996089;28;20022;-62
2022/08/14 00:46:19;;;;;;;10.38;9.27;;;;;;;;;;4979464;28;20653;-61
2022/08/14 00:48:44;;;;;;;12.18;9.82;;;;;;;;;;4995351;28;20546;-62
2022/08/14 00:54:05;;;;;;;10.93;9.93;;;;;;;;;;5003001;28;20068;-62
2022/08/14 00:56:31;;;;;;;11.93;10.73;;;;;;;;;;5002196;28;20036;-61
2022/08/14 00:58:57;;;;;;;11.15;10.15;;;;;;;;;;5001368;28;20029;-61
2022/08/14 01:01:22;;;;;;;11.77;10.60;;;;;;;;;;5001811;28;20550;-61
2022/08/14 01:03:48;;;;;;;11.07;10.07;;;;;;;;;;5000099;28;20049;-62
2022/08/14 01:06:17;;;;;;;10.75;9.75;;;;;;;;;;4999846;28;20042;-61
2022/08/14 01:08:54;;;;;;;10.93;9.73;;;;;;;;;;4999909;28;20037;-62
2022/08/14 01:11:20;;;;;;;11.15;10.05;;;;;;;;;;5003051;28;20118;-61
2022/08/14 01:13:46;;;;;;;10.60;9.63;;;;;;;;;;5004396;28;20117;-62
2022/08/14 01:16:13;;;;;;;10.18;9.10;;;;;;;;;;5005231;28;20026;-62
2022/08/14 01:21:32;;;;;;;10.65;9.63;;;;;;;;;;4999959;28;20060;-61
2022/08/14 01:24:01;;;;;;;10.30;9.20;;;;;;;;;;5000274;28;20123;-62
2022/08/14 01:29:10;;;;;;;10.43;9.43;;;;;;;;;;5005546;28;20060;-62
2022/08/14 01:31:45;;;;;;;10.55;9.57;;;;;;;;;;5003506;28;20296;-62
2022/08/14 01:34:10;;;;;;;;;;;;;;;;;;5006139;28;20045;-60
2022/08/14 01:36:37;;;;;;;10.93;8.82;;;;;;;;;;5005540;28;19910;-61
2022/08/14 01:39:12;;;;;;;10.00;9.07;;;;;;;;;;5005708;28;20044;-61
2022/08/14 01:41:38;;;;;;;10.05;9.15;;;;;;;;;;4981536;28;20026;-62
2022/08/14 01:44:06;;;;;;;10.32;9.45;;;;;;;;;;5005690;28;20119;-62
2022/08/14 01:46:33;;;;;;;10.60;9.50;;;;;;;;;;5005797;28;20033;-62
2022/08/14 01:49:03;;;;;;;10.85;9.77;;;;;;;;;;5004583;28;20495;-62
2022/08/14 01:51:29;;;;;;;10.10;9.13;;;;;;;;;;5004373;28;20049;-61
2022/08/14 01:53:55;;;;;;;10.68;9.63;;;;;;;;;;5004461;28;20070;-61
2022/08/14 01:56:23;;;;;;;9.93;9.02;;;;;;;;;;5005035;28;20369;-62
2022/08/14 01:58:48;;;;;;;9.73;8.82;;;;;;;;;;5005431;28;20025;-62
2022/08/14 02:01:18;;;;;;;9.93;8.93;;;;;;;;;;5005761;28;20376;-62
2022/08/14 02:03:44;;;;;;;10.23;9.15;;;;;;;;;;4999434;28;20026;-61
2022/08/14 02:06:10;;;;;;;8.88;8.07;;;;;;;;;;4997406;28;20059;-61
2022/08/14 02:08:36;;;;;;;10.38;9.18;;;;;;;;;;4999101;28;20041;-61
2022/08/14 02:11:21;;;;;;;9.27;8.50;;;;;;;;;;4998429;28;20034;-62
2022/08/14 02:13:51;;;;;;;9.67;8.77;;;;;;;;;;4998210;28;20096;-62
2022/08/14 02:16:18;;;;;;;9.85;8.88;;;;;;;;;;4996165;28;20040;-61
2022/08/14 02:18:44;;;;;;;10.30;9.15;;;;;;;;;;5002925;28;20026;-61
2022/08/14 02:21:11;;;;;;;9.70;8.57;;;;;;;;;;5002676;28;20018;-61
2022/08/14 02:23:37;;;;;;;9.80;8.80;;;;;;;;;;5004242;28;20030;-61
2022/08/14 02:26:12;;;;;;;10.90;9.80;;;;;;;;;;5000928;28;20034;-61
2022/08/14 02:28:38;;;;;;;10.40;9.38;;;;;;;;;;4998805;28;20026;-61
2022/08/14 02:31:04;;;;;;;9.40;8.50;;;;;;;;;;5002085;28;20066;-62
2022/08/14 02:33:29;;;;;;;8.88;8.00;;;;;;;;;;5006035;28;20034;-62
2022/08/14 02:35:55;;;;;;;9.98;8.98;;;;;;;;;;5004623;28;20396;-61
2022/08/14 02:38:20;;;;;;;9.55;8.55;;;;;;;;;;5007471;28;20038;-61
2022/08/14 02:40:46;;;;;;;9.48;8.20;;;;;;;;;;5003718;28;20074;-61
2022/08/14 02:43:12;;;;;;;10.18;9.18;;;;;;;;;;5004644;28;20034;-61
2022/08/14 02:45:37;;;;;;;12.60;9.23;;;;;;;;;;5002974;28;20042;-62
2022/08/14 02:48:05;;;;;;;8.82;8.02;;;;;;;;;;5003877;28;20384;-62
2022/08/14 02:50:30;;;;;;;8.80;7.95;;;;;;;;;;5004507;28;20109;-61
2022/08/14 02:52:56;;;;;;;8.82;8.02;;;;;;;;;;5004616;28;20026;-62
2022/08/14 02:55:21;;;;;;;9.48;8.57;;;;;;;;;;5001243;28;20625;-61
2022/08/14 02:57:50;;;;;;;9.30;8.50;;;;;;;;;;4998777;28;20066;-61
2022/08/14 03:00:15;;;;;;;9.75;8.85;;;;;;;;;;4999378;28;20428;-61
2022/08/14 03:02:41;;;;;;;9.48;8.68;;;;;;;;;;4997087;28;20076;-61
2022/08/14 03:05:06;;;;;;;9.77;8.88;;;;;;;;;;4997175;28;20037;-62
2022/08/14 03:07:32;;;;;;;9.98;8.98;;;;;;;;;;4997320;28;20172;-61
2022/08/14 03:09:58;;;;;;;9.75;8.60;;;;;;;;;;4997244;28;20108;-61
2022/08/14 03:12:23;;;;;;;9.88;8.93;;;;;;;;;;5001916;28;20116;-61
2022/08/14 03:14:50;;;;;;;9.52;7.88;;;;;;;;;;4998172;28;20467;-61
2022/08/14 03:17:15;;;;;;;9.43;8.60;;;;;;;;;;4996074;28;20464;-62
2022/08/14 03:19:41;;;;;;;10.15;9.25;;;;;;;;;;4997184;28;20156;-61
2022/08/14 03:22:06;;;;;;;10.35;9.38;;;;;;;;;;4996617;28;20041;-61
2022/08/14 03:24:31;;;;;;;8.73;7.93;;;;;;;;;;5003113;28;20037;-61
2022/08/14 03:26:57;;;;;;;9.50;8.57;;;;;;;;;;5002921;28;20480;-61
2022/08/14 03:29:23;;;;;;;9.23;8.30;;;;;;;;;;4998272;28;20442;-61
2022/08/14 03:31:50;;;;;;;9.27;8.48;;;;;;;;;;4998082;28;20155;-61
2022/08/14 03:34:15;;;;;;;10.63;9.15;;;;;;;;;;5003316;28;20045;-61
2022/08/14 03:36:42;;;;;;;9.50;8.57;;;;;;;;;;5002265;28;20034;-62
2022/08/14 03:39:08;;;;;;;9.65;8.75;;;;;;;;;;5003123;28;20064;-61
2022/08/14 03:41:34;;;;;;;8.82;8.10;;;;;;;;;;4996254;28;20573;-61
2022/08/14 03:44:00;;;;;;;9.68;8.68;;;;;;;;;;4996319;28;20033;-61
2022/08/14 03:46:27;;;;;;;9.63;8.73;;;;;;;;;;5002239;28;20124;-61
2022/08/14 03:48:53;;;;;;;9.73;8.73;;;;;;;;;;4998358;28;20697;-61
2022/08/14 03:51:19;;;;;;;9.15;8.35;;;;;;;;;;4995894;28;20567;-61
2022/08/14 03:53:45;;;;;;;9.52;8.63;;;;;;;;;;5000429;28;20117;-61
2022/08/14 03:56:13;;;;;;;10.75;9.48;;;;;;;;;;4996995;28;20036;-61
2022/08/14 03:58:40;;;;;;;14.23;9.85;;;;;;;;;;4999356;28;20041;-61
2022/08/14 04:01:06;;;;;;;10.38;9.35;;;;;;;;;;5002418;28;20101;-61
2022/08/14 04:03:31;;;;;;;9.50;8.70;;;;;;;;;;5002131;28;20106;-61
2022/08/14 04:05:56;;;;;;;11.77;9.18;;;;;;;;;;5003512;28;20041;-61
2022/08/14 04:08:22;;;;;;;9.15;8.45;;;;;;;;;;5003109;28;20672;-61
2022/08/14 04:10:47;;;;;;;11.68;10.50;;;;;;;;;;5002217;28;20030;-61
2022/08/14 04:13:16;;;;;;;9.68;8.77;;;;;;;;;;4997594;28;20026;-61
2022/08/14 04:15:43;;;;;;;10.15;9.18;;;;;;;;;;4995358;28;20328;-61
2022/08/14 04:18:08;;;;;;;9.30;8.50;;;;;;;;;;4995734;28;20037;-60
2022/08/14 04:20:34;;;;;;;9.35;8.55;;;;;;;;;;4996352;28;20026;-61
2022/08/14 04:23:00;;;;;;;10.05;9.07;;;;;;;;;;4996224;28;20077;-61
2022/08/14 04:25:25;;;;;;;9.35;8.45;;;;;;;;;;4995945;28;20116;-61
2022/08/14 04:27:50;;;;;;;9.52;8.45;;;;;;;;;;4997013;28;20113;-61
2022/08/14 04:30:16;;;;;;;10.45;9.45;;;;;;;;;;4995803;28;20145;-61
2022/08/14 04:32:41;;;;;;;9.80;8.45;;;;;;;;;;5001300;28;20065;-61
2022/08/14 04:35:06;;;;;;;10.45;9.10;;;;;;;;;;5003003;28;20034;-61
2022/08/14 04:45:44;;;;;;;9.77;8.88;;;;;;;;;;4998337;28;20483;-62
2022/08/14 04:48:14;;;;;;;10.45;9.52;;;;;;;;;;5002785;28;20030;-62
2022/08/14 04:50:45;;;;;;;10.65;9.65;;;;;;;;;;5001267;28;20033;-63
2022/08/14 04:53:14;;;;;;;10.23;9.23;;;;;;;;;;5000835;28;20030;-62
2022/08/14 04:55:47;;;;;;;9.20;8.20;;;;;;;;;;5000988;28;20026;-62
2022/08/14 04:58:12;;;;;;;10.88;9.77;;;;;;;;;;4995646;28;20030;-62
2022/08/14 05:00:38;;;;;;;9.90;8.90;;;;;;;;;;4996998;28;20084;-62
2022/08/14 05:03:04;;;;;;;9.50;8.70;;;;;;;;;;5001594;28;20030;-61
2022/08/14 05:05:31;;;;;;;9.20;8.38;;;;;;;;;;5002775;28;20046;-62
2022/08/14 05:08:05;;;;;;;9.32;8.50;;;;;;;;;;5000377;28;20038;-62
2022/08/14 05:10:30;;;;;;;10.32;9.30;;;;;;;;;;4995877;28;20045;-61
2022/08/14 05:12:55;;;;;;;9.90;9.10;;;;;;;;;;4997694;28;20030;-62
2022/08/14 05:15:21;;;;;;;10.65;9.68;;;;;;;;;;5000951;28;20477;-62
2022/08/14 05:17:47;;;;;;;10.60;9.60;;;;;;;;;;4996124;28;20026;-62
2022/08/14 05:20:13;;;;;;;12.10;11.00;;;;;;;;;;4999881;28;20507;-62
2022/08/14 05:22:38;;;;;;;10.25;9.35;;;;;;;;;;4995002;28;20034;-62
2022/08/14 05:25:03;;;;;;;11.18;10.18;;;;;;;;;;4996655;28;20041;-62
2022/08/14 05:27:29;;;;;;;10.73;9.73;;;;;;;;;;4996740;28;20149;-62
2022/08/14 05:29:54;;;;;;;11.20;10.15;;;;;;;;;;4996359;28;20045;-62
2022/08/14 05:32:20;;;;;;;12.82;11.55;;;;;;;;;;4997088;28;20412;-61
2022/08/14 05:34:45;;;;;;;12.63;11.27;;;;;;;;;;4994473;28;20476;-61
2022/08/14 05:37:11;;;;;;;12.27;11.07;;;;;;;;;;5000381;28;20040;-61
2022/08/14 05:39:37;;;;;;;14.32;11.65;;;;;;;;;;4981788;28;20657;-62
2022/08/14 05:42:03;;;;;;;12.68;11.38;;;;;;;;;;4970069;28;20025;-62
2022/08/14 05:44:28;;;;;;;13.40;11.52;;;;;;;;;;4998877;28;20038;-63
2022/08/14 05:46:53;;;;;;;11.45;10.30;;;;;;;;;;4994571;28;20425;-62
2022/08/14 05:49:18;;;;;;;12.13;10.85;;;;;;;;;;4994172;28;20519;-63
2022/08/14 05:51:45;;;;;;;11.32;10.43;;;;;;;;;;4999252;28;20022;-63
2022/08/14 05:54:11;;;;;;;11.20;10.30;;;;;;;;;;5000613;28;20118;-63
2022/08/14 05:56:36;;;;;;;11.90;10.80;;;;;;;;;;4999289;28;20525;-62
2022/08/14 05:59:01;;;;;;;11.15;10.15;;;;;;;;;;4999159;28;20029;-63
2022/08/14 06:01:27;;;;;;;10.98;9.98;;;;;;;;;;4998684;28;20120;-63
2022/08/14 06:03:52;;;;;;;10.55;9.57;;;;;;;;;;4979592;28;20040;-63
2022/08/14 06:06:17;;;;;;;12.18;11.07;;;;;;;;;;5000853;28;20057;-63
2022/08/14 06:08:43;;;;;;;10.48;9.57;;;;;;;;;;5005554;28;20572;-63
2022/08/14 06:11:08;;;;;;;11.38;10.25;;;;;;;;;;4999503;28;20034;-63
2022/08/14 06:13:41;;;;;;;10.68;9.68;;;;;;;;;;4999768;28;20037;-63
2022/08/14 06:16:07;;;;;;;10.88;9.88;;;;;;;;;;4998255;28;20034;-63
2022/08/14 06:18:34;;;;;;;11.27;10.05;;;;;;;;;;5000345;28;20531;-63
2022/08/14 06:20:59;;;;;;;11.38;10.32;;;;;;;;;;4998121;28;20419;-63
2022/08/14 06:23:24;;;;;;;11.20;10.07;;;;;;;;;;5002271;28;20499;-75
2022/08/14 06:25:49;;;;;;;11.10;10.20;;;;;;;;;;4996275;28;20937;-62
2022/08/14 06:28:19;;;;;;;10.10;9.30;;;;;;;;;;4997109;28;20640;-64
2022/08/14 06:30:44;;;;;;;10.15;9.25;;;;;;;;;;4997184;28;20031;-64
2022/08/14 06:33:09;;;;;;;9.23;8.32;;;;;;;;;;4999620;28;20389;-62
2022/08/14 06:35:35;;;;;;;9.25;8.45;;;;;;;;;;4962289;28;20543;-62
2022/08/14 06:38:00;;;;;;;9.23;8.38;;;;;;;;;;4974360;28;20431;-62
2022/08/14 06:40:27;;;;;;;8.60;7.93;;;;;;;;;;4997756;28;20475;-62
2022/08/14 06:42:52;;;;;;;9.85;9.05;;;;;;;;;;4997233;28;20026;-62
2022/08/14 06:45:18;;;;;;;9.82;9.02;;;;;;;;;;4983435;28;20430;-62
2022/08/14 06:47:43;;;;;;;10.13;9.05;;;;;;;;;;4996739;28;20033;-62
2022/08/14 06:50:14;;;;;;;8.45;7.85;;;;;;;;;;4996196;28;20036;-62
2022/08/14 06:52:39;;;;;;;9.20;8.40;;;;;;;;;;4999527;28;20057;-62
2022/08/14 06:55:05;;;;;;;10.32;9.52;;;;;;;;;;4997820;28;20189;-62
2022/08/14 06:57:38;;;;;;;8.63;7.93;;;;;;;;;;4997482;28;20034;-64
2022/08/14 07:00:07;;;;;;;7.80;7.10;;;;;;;;;;5002937;28;20459;-62
2022/08/14 07:08:21;;;;;;;7.20;6.65;;;;;;;;;;4956425;28;20125;-62
2022/08/14 07:10:50;;;;;;;7.22;6.63;;;;;;;;;;4950250;28;20034;-62
2022/08/14 07:13:19;;;;;;;6.50;6.00;;;;;;;;;;4952446;28;20035;-62
2022/08/14 07:15:49;;;;;;;6.63;6.03;;;;;;;;;;4958970;28;20039;-62
2022/08/14 07:18:14;;;;;;;7.05;6.35;;;;;;;;;;4957707;28;20186;-62
2022/08/14 07:20:40;;;;;;;6.90;6.32;;;;;;;;;;4940290;28;20318;-62
2022/08/14 07:23:06;;;;;;;7.25;6.65;;;;;;;;;;4954747;28;20073;-62
2022/08/14 07:25:32;;;;;;;7.43;6.78;;;;;;;;;;4952510;28;20467;-62
2022/08/14 07:27:57;;;;;;;8.60;7.88;;;;;;;;;;4953719;28;20035;-62
2022/08/14 07:30:23;;;;;;;8.45;7.82;;;;;;;;;;4957129;28;20487;-62
2022/08/14 07:32:49;;;;;;;8.07;7.43;;;;;;;;;;4958067;28;20078;-62
2022/08/14 07:35:14;;;;;;;9.43;7.85;;;;;;;;;;4956110;28;20415;-62
2022/08/14 07:37:40;;;;;;;9.23;8.32;;;;;;;;;;4951282;28;20043;-62
2022/08/14 07:40:05;;;;;;;10.10;9.20;;;;;;;;;;4995887;28;20053;-64
2022/08/14 07:42:31;;;;;;;9.23;8.43;;;;;;;;;;5001845;28;20014;-63
2022/08/14 07:44:57;;;;;;;9.40;8.60;;;;;;;;;;5002766;28;20452;-61
2022/08/14 07:47:22;;;;;;;10.18;9.25;;;;;;;;;;5000579;28;20021;-62
2022/08/14 07:49:57;;;;;;;9.27;8.43;;;;;;;;;;5000271;28;20074;-62
2022/08/14 07:52:23;;;;;;;9.95;9.15;;;;;;;;;;4997293;28;20029;-62
2022/08/14 07:54:49;;;;;;;12.18;11.07;;;;;;;;;;4996235;28;20029;-62
2022/08/14 07:57:16;;;;;;;10.80;9.70;;;;;;;;;;4996449;28;20022;-62
2022/08/14 07:59:41;;;;;;;11.43;10.43;;;;;;;;;;4998327;28;20040;-62
2022/08/14 08:02:07;;;;;;;10.98;10.07;;;;;;;;;;4997016;28;20041;-60
2022/08/14 08:04:33;;;;;;;10.75;9.77;;;;;;;;;;4979711;28;20041;-62
2022/08/14 08:06:58;;;;;;;12.02;11.02;;;;;;;;;;4996562;28;20502;-68
2022/08/14 08:09:25;;;;;;;11.55;10.55;;;;;;;;;;4998564;28;20417;-63
2022/08/14 08:11:51;;;;;;;11.27;10.18;;;;;;;;;;4996653;28;20037;-64
2022/08/14 08:14:17;;;;;;;11.20;10.20;;;;;;;;;;4996365;28;20532;-63
2022/08/14 08:16:44;;;;;;;11.35;10.35;;;;;;;;;;4996247;28;20025;-62
2022/08/14 08:19:10;;;;;;;11.63;10.52;;;;;;;;;;4997506;28;20061;-63
2022/08/14 08:21:38;;;;;;;10.93;9.88;;;;;;;;;;4999384;28;20038;-62
2022/08/14 08:24:03;;;;;;;12.10;10.90;;;;;;;;;;4996155;28;20030;-62
2022/08/14 08:26:29;;;;;;;11.48;10.48;;;;;;;;;;5000141;28;20657;-63
2022/08/14 08:28:58;;;;;;;11.70;10.60;;;;;;;;;;5002508;28;20061;-66
2022/08/14 08:31:24;;;;;;;11.75;10.55;;;;;;;;;;5001659;28;20054;-66
2022/08/14 08:33:51;;;;;;;12.10;10.90;;;;;;;;;;5001846;28;20068;-65
2022/08/14 08:36:16;;;;;;;12.43;11.15;;;;;;;;;;4976832;28;20038;-65
2022/08/14 08:38:41;;;;;;;11.50;10.40;;;;;;;;;;4994793;28;20116;-65
2022/08/14 08:41:09;;;;;;;12.05;10.95;;;;;;;;;;4998606;28;20709;-66
2022/08/14 08:43:35;;;;;;;11.82;10.80;;;;;;;;;;4995137;28;20685;-66
2022/08/14 08:46:03;;;;;;;12.75;11.65;;;;;;;;;;4994690;28;20344;-64
2022/08/14 08:48:50;;;;;;;13.05;11.95;;;;;;;;;;4995411;28;20105;-64
2022/08/14 08:51:21;;;;;;;12.88;11.77;;;;;;;;;;4997307;28;20029;-65
2022/08/14 08:53:54;;;;;;;13.55;12.23;;;;;;;;;;5000728;28;20058;-65
2022/08/14 08:56:19;;;;;;;12.88;11.68;;;;;;;;;;5001681;28;20464;-64
2022/08/14 08:58:44;;;;;;;12.60;11.50;;;;;;;;;;5001831;28;20034;-66
2022/08/14 09:01:10;;;;;;;13.18;11.43;;;;;;;;;;5002058;28;20080;-66
2022/08/14 09:03:35;;;;;;;15.65;14.18;;;;;;;;;;5001432;28;20023;-65
2022/08/14 09:06:02;;;;;;;14.63;13.30;;;;;;;;;;4985247;28;20038;-67
2022/08/14 09:08:32;;;;;;;14.00;12.73;;;;;;;;;;4980158;28;20039;-66
2022/08/14 09:10:58;;;;;;;13.88;12.60;;;;;;;;;;4993626;28;20032;-66
2022/08/14 09:13:26;;;;;;;13.13;11.82;;;;;;;;;;4963451;28;20126;-66
2022/08/14 09:15:52;;;;;;;14.32;13.00;;;;;;;;;;4962152;28;20035;-66
2022/08/14 09:18:18;;;;;;;15.10;11.82;;;;;;;;;;4960814;28;20494;-66
2022/08/14 09:20:45;;;;;;;12.85;11.65;;;;;;;;;;4964113;28;20050;-66
2022/08/14 09:23:11;;;;;;;13.40;12.18;;;;;;;;;;4955703;28;20169;-65
2022/08/14 09:25:37;;;;;;;12.75;11.45;;;;;;;;;;4957359;28;20880;-65
2022/08/14 09:28:03;;;;;;;14.07;12.40;;;;;;;;;;4959607;28;20903;-65
2022/08/14 09:30:30;;;;;;;13.05;11.80;;;;;;;;;;4961238;28;20378;-65
2022/08/14 09:32:55;;;;;;;13.73;12.52;;;;;;;;;;4983406;28;20062;-64
2022/08/14 09:35:29;;;;;;;13.10;11.82;;;;;;;;;;4978069;28;20550;-64
2022/08/14 09:37:54;;;;;;;11.30;10.35;;;;;;;;;;4981231;28;20034;-66
2022/08/14 09:40:26;;;;;;;13.50;12.10;;;;;;;;;;4979812;28;20069;-66
2022/08/14 09:43:13;;;;;;;13.13;11.98;;;;;;;;;;4978440;28;20574;-65
2022/08/14 09:45:45;;;;;;;13.23;11.95;;;;;;;;;;4980537;28;20023;-66
2022/08/14 09:48:15;;;;;;;13.07;11.88;;;;;;;;;;4981107;28;20036;-65
2022/08/14 09:50:48;;;;;;;12.75;11.55;;;;;;;;;;4979728;28;20480;-64
2022/08/14 09:53:15;;;;;;;13.02;11.82;;;;;;;;;;4985671;28;20018;-65
2022/08/14 09:55:40;;;;;;;12.65;11.45;;;;;;;;;;4982658;28;20072;-65
2022/08/14 09:58:08;;;;;;;12.93;11.82;;;;;;;;;;4978865;28;20113;-65
2022/08/14 10:00:55;;;;;;;13.07;11.70;;;;;;;;;;4978798;28;20032;-68
2022/08/14 10:03:31;;;;;;;11.65;10.65;;;;;;;;;;4978977;28;20034;-67
2022/08/14 10:06:07;;;;;;;12.88;11.68;;;;;;;;;;4982002;28;20035;-67
2022/08/14 10:08:40;;;;;;;12.15;11.05;;;;;;;;;;4979624;28;20026;-67
2022/08/14 10:11:16;;;;;;;13.55;12.25;;;;;;;;;;4978523;28;20077;-69
2022/08/14 10:13:41;;;;;;;11.85;10.95;;;;;;;;;;4978302;28;20033;-67
2022/08/14 10:16:07;;;;;;;13.48;12.38;;;;;;;;;;4963530;28;20026;-69
2022/08/14 10:18:32;;;;;;;12.43;11.43;;;;;;;;;;4979095;28;20134;-67
2022/08/14 10:20:59;;;;;;;11.35;10.35;;;;;;;;;;4954644;28;20034;-55
2022/08/14 10:23:26;;;;;;;12.32;11.13;;;;;;;;;;4978770;28;20038;-65
2022/08/14 10:25:56;;;;;;;12.65;11.57;;;;;;;;;;4978439;28;20072;-65
2022/08/14 10:28:21;;;;;;;14.60;13.15;;;;;;;;;;4981385;28;20026;-65
2022/08/14 10:30:51;;;;;;;13.48;12.27;;;;;;;;;;4977099;28;20026;-65
2022/08/14 10:33:28;;;;;;;11.77;10.77;;;;;;;;;;4982000;28;20045;-65
2022/08/14 10:35:54;;;;;;;12.02;11.02;;;;;;;;;;4979735;28;20586;-64
2022/08/14 10:38:26;;;;;;;12.75;11.73;;;;;;;;;;4976313;28;20030;-66
2022/08/14 10:40:51;;;;;;;12.18;11.13;;;;;;;;;;4983196;28;20034;-66
2022/08/14 10:43:24;;;;;;;12.63;11.43;;;;;;;;;;4979131;28;20049;-66
2022/08/14 10:45:53;;;;;;;11.90;10.90;;;;;;;;;;4976880;28;20041;-66
2022/08/14 10:48:19;;;;;;;11.35;10.30;;;;;;;;;;4980421;28;20026;-66
2022/08/14 10:50:49;;;;;;;12.30;11.30;;;;;;;;;;4979092;28;20636;-66
2022/08/14 10:53:14;;;;;;;11.20;10.30;;;;;;;;;;4980008;28;20486;-66
2022/08/14 10:55:39;;;;;;;12.00;11.00;;;;;;;;;;4979659;28;20041;-66
2022/08/14 10:58:10;;;;;;;12.77;10.68;;;;;;;;;;4977955;28;21098;-66
2022/08/14 11:00:38;;;;;;;14.65;12.00;;;;;;;;;;4976454;28;20030;-67
2022/08/14 11:03:12;;;;;;;11.77;10.77;;;;;;;;;;4977300;28;20029;-66
2022/08/14 11:05:39;;;;;;;11.68;10.65;;;;;;;;;;4975990;28;20476;-66
2022/08/14 11:08:04;;;;;;;12.55;11.40;;;;;;;;;;4976839;28;20070;-64
2022/08/14 11:10:40;;;;;;;12.07;11.02;;;;;;;;;;4958531;28;20060;-66
2022/08/14 11:13:07;;;;;;;12.48;11.48;;;;;;;;;;4978686;28;20042;-64
2022/08/14 11:15:32;;;;;;;12.82;11.63;;;;;;;;;;4978358;28;20030;-64
2022/08/14 11:17:58;;;;;;;12.82;11.82;;;;;;;;;;4977718;28;20030;-65
2022/08/14 11:20:24;;;;;;;13.35;12.15;;;;;;;;;;4981272;28;20049;-65
2022/08/14 11:22:51;;;;;;;11.98;10.70;;;;;;;;;;4982978;28;20053;-65
2022/08/14 11:25:17;;;;;;;12.13;11.02;;;;;;;;;;4979335;28;20656;-63
2022/08/14 11:27:43;;;;;;;12.90;11.20;;;;;;;;;;4977815;28;20029;-59
2022/08/14 11:30:10;;;;;;;11.95;10.93;;;;;;;;;;4983938;28;20141;-59
2022/08/14 11:32:37;;;;;;;12.48;11.48;;;;;;;;;;4967079;28;20061;-60
2022/08/14 11:35:03;;;;;;;12.27;11.18;;;;;;;;;;4977058;28;20038;-60
2022/08/14 11:37:32;;;;;;;11.90;10.75;;;;;;;;;;4977347;28;20427;-62
2022/08/14 11:39:58;;;;;;;11.43;10.43;;;;;;;;;;4978438;28;20022;-66
2022/08/14 11:42:25;;;;;;;11.50;10.60;;;;;;;;;;4978939;28;20037;-65
2022/08/14 11:44:51;;;;;;;10.80;9.68;;;;;;;;;;4977671;28;20026;-63
2022/08/14 11:47:19;;;;;;;11.85;10.95;;;;;;;;;;4979427;28;20042;-64
2022/08/14 11:49:48;;;;;;;11.68;10.65;;;;;;;;;;4978831;28;20030;-64
2022/08/14 11:52:15;;;;;;;13.18;12.07;;;;;;;;;;4961593;28;20080;-64
2022/08/14 11:54:40;;;;;;;11.02;10.02;;;;;;;;;;4979746;28;20041;-64
2022/08/14 11:57:12;;;;;;;12.25;11.25;;;;;;;;;;4976687;28;20034;-65
2022/08/14 11:59:39;;;;;;;12.15;11.15;;;;;;;;;;4982699;28;20345;-65
2022/08/14 12:02:15;;;;;;;11.55;10.45;;;;;;;;;;4983288;28;20022;-63
2022/08/14 12:04:50;;;;;;;11.77;10.52;;;;;;;;;;4981190;28;20026;-64
2022/08/14 12:07:15;;;;;;;10.35;9.55;;;;;;;;;;4976807;28;20404;-64
2022/08/14 12:09:41;;;;;;;11.60;10.52;;;;;;;;;;4979708;28;20034;-65
2022/08/14 12:12:16;;;;;;;11.27;10.38;;;;;;;;;;4975540;28;20117;-65
2022/08/14 12:14:48;;;;;;;11.10;10.00;;;;;;;;;;4978413;28;20022;-66
2022/08/14 12:17:14;;;;;;;11.38;9.93;;;;;;;;;;4982276;28;20030;-66
2022/08/14 12:19:43;;;;;;;11.73;10.60;;;;;;;;;;4979291;28;20034;-65
2022/08/14 12:22:08;;;;;;;10.30;9.30;;;;;;;;;;4976241;28;20049;-67
2022/08/14 12:24:33;;;;;;;12.02;10.85;;;;;;;;;;4979251;28;20042;-66
2022/08/14 12:26:59;;;;;;;11.45;10.38;;;;;;;;;;4976923;28;20034;-67
2022/08/14 12:29:24;;;;;;;11.50;10.40;;;;;;;;;;4979304;28;20093;-67
2022/08/14 12:31:59;;;;;;;11.02;10.18;;;;;;;;;;4978524;28;20615;-67
2022/08/14 12:34:29;;;;;;;12.00;10.95;;;;;;;;;;4981725;28;20057;-66
2022/08/14 12:37:04;;;;;;;11.10;9.95;;;;;;;;;;4979337;28;20084;-67
2022/08/14 12:39:30;;;;;;;10.80;9.85;;;;;;;;;;4980992;28;20023;-66
2022/08/14 12:42:00;;;;;;;11.32;10.43;;;;;;;;;;4981672;28;20356;-66
2022/08/14 12:44:47;;;;;;;12.02;10.60;;;;;;;;;;4977702;28;20038;-66
2022/08/14 12:47:19;;;;;;;13.05;11.20;;;;;;;;;;4981105;28;20069;-66
2022/08/14 12:49:52;;;;;;;11.48;10.48;;;;;;;;;;4978952;28;20092;-67
2022/08/14 12:52:33;;;;;;;11.10;10.20;;;;;;;;;;4980632;28;20090;-66
2022/08/14 12:54:59;;;;;;;10.15;9.35;;;;;;;;;;4979881;28;20268;-67
2022/08/14 12:57:32;;;;;;;10.70;9.50;;;;;;;;;;4960170;28;20097;-67
2022/08/14 13:00:24;;;;;;;11.32;10.30;;;;;;;;;;4952611;28;20026;-67
2022/08/14 13:02:50;;;;;;;10.20;9.30;;;;;;;;;;4983125;28;20038;-69
2022/08/14 13:05:16;;;;;;;10.77;9.98;;;;;;;;;;4983481;28;20038;-68
2022/08/14 13:07:42;;;;;;;10.27;9.35;;;;;;;;;;4944605;28;20041;-68
2022/08/14 13:10:13;;;;;;;10.48;9.63;;;;;;;;;;4978155;28;20514;-67
2022/08/14 13:12:41;;;;;;;9.60;8.90;;;;;;;;;;4977920;28;20456;-68
2022/08/14 13:15:08;;;;;;;9.20;8.40;;;;;;;;;;4977535;28;20045;-69
2022/08/14 13:17:37;;;;;;;9.95;8.98;;;;;;;;;;4977753;28;20030;-65
2022/08/14 13:20:03;;;;;;;10.00;9.20;;;;;;;;;;4980596;28;20081;-64
2022/08/14 13:22:28;;;;;;;8.95;8.35;;;;;;;;;;4978538;28;20109;-64
2022/08/14 13:24:54;;;;;;;9.80;8.52;;;;;;;;;;4981306;28;21047;-66
2022/08/14 13:27:23;;;;;;;10.32;9.50;;;;;;;;;;4984200;28;20385;-66
2022/08/14 13:29:50;;;;;;;10.43;9.63;;;;;;;;;;4977197;28;20032;-64
2022/08/14 13:32:16;;;;;;;10.75;9.95;;;;;;;;;;4977416;28;20477;-64
2022/08/14 13:34:44;;;;;;;10.30;9.43;;;;;;;;;;4977172;28;20146;-65
2022/08/14 13:37:09;;;;;;;10.90;10.10;;;;;;;;;;4974449;28;20038;-67
2022/08/14 13:39:35;;;;;;;10.32;9.40;;;;;;;;;;4979962;28;20857;-64
2022/08/14 13:42:03;;;;;;;10.30;9.50;;;;;;;;;;4978282;28;20442;-65
2022/08/14 13:44:31;;;;;;;10.88;9.98;;;;;;;;;;4975962;28;20217;-66
2022/08/14 13:46:57;;;;;;;10.57;9.77;;;;;;;;;;4974634;28;20461;-62
2022/08/14 13:49:22;;;;;;;9.85;8.95;;;;;;;;;;4975023;28;20249;-63
2022/08/14 13:51:50;;;;;;;9.05;8.35;;;;;;;;;;4977033;28;20077;-63
2022/08/14 13:54:19;;;;;;;9.98;9.27;;;;;;;;;;4973841;28;20183;-63
2022/08/14 13:56:45;;;;;;;9.63;8.93;;;;;;;;;;4977678;28;20029;-63
2022/08/14 13:59:11;;;;;;;9.43;8.63;;;;;;;;;;4975133;28;20027;-62
2022/08/14 14:01:38;;;;;;;9.65;8.82;;;;;;;;;;4976763;28;20030;-62
2022/08/14 14:04:05;;;;;;;10.15;9.30;;;;;;;;;;4977223;28;20050;-61
2022/08/14 14:06:31;;;;;;;10.20;9.30;;;;;;;;;;4975413;28;20059;-61
2022/08/14 14:08:57;;;;;;;9.93;9.02;;;;;;;;;;4977754;28;20022;-62
2022/08/14 14:11:23;;;;;;;9.20;8.35;;;;;;;;;;4954719;28;20088;-62
2022/08/14 14:13:52;;;;;;;8.95;8.20;;;;;;;;;;4977808;28;20073;-61
2022/08/14 14:16:19;;;;;;;9.00;8.23;;;;;;;;;;4978913;28;20072;-62
2022/08/14 14:18:47;;;;;;;9.98;9.10;;;;;;;;;;4966871;28;20034;-65
2022/08/14 14:21:13;;;;;;;8.40;7.70;;;;;;;;;;4979833;28;20027;-65
2022/08/14 14:23:41;;;;;;;8.70;8.00;;;;;;;;;;4978323;28;20072;-65
2022/08/14 14:26:07;;;;;;;8.88;8.07;;;;;;;;;;4981489;28;20037;-67
2022/08/14 14:28:32;;;;;;;8.52;7.88;;;;;;;;;;4962461;28;20463;-65
2022/08/14 14:31:00;;;;;;;8.13;7.53;;;;;;;;;;4977564;28;20030;-63
2022/08/14 14:33:25;;;;;;;9.73;8.90;;;;;;;;;;4978717;28;20769;-63
2022/08/14 14:35:50;;;;;;;8.30;7.63;;;;;;;;;;4978650;28;20449;-63
2022/08/14 14:38:16;;;;;;;8.98;8.30;;;;;;;;;;4964816;28;20053;-62
2022/08/14 14:40:44;;;;;;;8.90;8.20;;;;;;;;;;4980254;28;20489;-63
2022/08/14 14:43:10;;;;;;;9.82;9.13;;;;;;;;;;4978387;28;20097;-64
2022/08/14 14:45:36;;;;;;;9.45;8.68;;;;;;;;;;4977925;28;20050;-63
2022/08/14 14:48:01;;;;;;;9.05;8.45;;;;;;;;;;4977790;28;20034;-63
2022/08/14 14:50:27;;;;;;;8.05;7.45;;;;;;;;;;4976821;28;20030;-63